createdAt,value
2022-09-23T00:01:09.508Z,3.90
2022-09-23T00:03:45.626Z,3.60
2022-09-23T00:06:16.766Z,3.40
2022-09-23T00:08:46.899Z,3.30
2022-09-23T00:11:18.603Z,3.30
2022-09-23T00:13:50.408Z,3.40
2022-09-23T00:16:22.966Z,3.40
2022-09-23T00:18:55.464Z,3.40
2022-09-23T00:21:25.523Z,3.40
2022-09-23T00:23:55.682Z,3.30
2022-09-23T00:26:26.137Z,3.30
2022-09-23T00:28:56.005Z,3.30
2022-09-23T00:31:27.644Z,3.30
2022-09-23T00:34:01.857Z,3.30
2022-09-23T00:36:33.301Z,3.30
2022-09-23T00:39:04.561Z,3.30
2022-09-23T00:41:35.655Z,3.30
2022-09-23T00:44:27.659Z,3.30
2022-09-23T00:46:57.578Z,3.30
2022-09-23T00:49:32.834Z,3.30
2022-09-23T00:52:08.884Z,3.30
2022-09-23T00:54:38.952Z,3.20
2022-09-23T00:57:08.932Z,3.20
2022-09-23T00:59:39.310Z,3.20
2022-09-23T01:02:10.081Z,3.20
2022-09-23T01:04:43.248Z,3.20
2022-09-23T01:07:13.829Z,3.20
2022-09-23T01:09:43.805Z,3.30
2022-09-23T01:12:22.830Z,3.20
2022-09-23T01:14:58.482Z,3.10
2022-09-23T01:17:36.156Z,3.00
2022-09-23T01:20:44.949Z,2.90
2022-09-23T01:23:27.836Z,2.70
2022-09-23T01:26:22.993Z,2.70
2022-09-23T01:29:05.516Z,2.70
2022-09-23T01:31:41.628Z,2.70
2022-09-23T01:34:15.259Z,2.70
2022-09-23T01:36:49.315Z,2.60
2022-09-23T01:39:24.112Z,2.70
2022-09-23T01:41:58.277Z,2.70
2022-09-23T01:44:33.462Z,2.70
2022-09-23T01:47:11.111Z,2.60
2022-09-23T01:49:47.943Z,2.70
2022-09-23T01:52:22.054Z,2.70
2022-09-23T01:54:55.403Z,2.70
2022-09-23T01:57:28.462Z,2.70
2022-09-23T02:00:02.225Z,2.80
2022-09-23T02:02:50.049Z,2.70
2022-09-23T02:05:24.045Z,2.70
2022-09-23T02:07:59.541Z,2.70
2022-09-23T02:10:33.503Z,2.70
2022-09-23T02:13:07.107Z,2.70
2022-09-23T02:15:40.338Z,2.70
2022-09-23T02:18:17.234Z,2.70
2022-09-23T02:20:47.562Z,2.70
2022-09-23T02:23:20.866Z,2.60
2022-09-23T02:25:57.543Z,2.50
2022-09-23T02:28:34.656Z,2.40
2022-09-23T02:31:11.976Z,2.40
2022-09-23T02:33:47.110Z,2.40
2022-09-23T02:36:21.178Z,2.50
2022-09-23T02:38:53.264Z,2.50
2022-09-23T02:41:29.428Z,2.50
2022-09-23T02:44:02.493Z,2.60
2022-09-23T02:46:32.825Z,2.60
2022-09-23T02:49:11.245Z,2.60
2022-09-23T02:51:41.711Z,2.60
2022-09-23T02:54:14.750Z,2.60
2022-09-23T02:56:44.978Z,2.60
2022-09-23T02:59:19.434Z,2.60
2022-09-23T03:02:05.587Z,2.60
2022-09-23T03:04:46.621Z,2.50
2022-09-23T03:07:20.109Z,2.50
2022-09-23T03:09:55.918Z,2.50
2022-09-23T03:12:36.230Z,2.40
2022-09-23T03:15:17.743Z,2.40
2022-09-23T03:17:54.741Z,2.40
2022-09-23T03:20:31.864Z,2.40
2022-09-23T03:23:04.924Z,2.40
2022-09-23T03:25:37.243Z,2.30
2022-09-23T03:28:08.347Z,2.40
2022-09-23T03:30:38.628Z,2.30
2022-09-23T03:33:12.190Z,2.40
2022-09-23T03:36:01.668Z,2.30
2022-09-23T03:38:35.177Z,2.30
2022-09-23T03:41:06.250Z,2.30
2022-09-23T03:43:38.866Z,2.00
2022-09-23T03:46:10.477Z,2.00
2022-09-23T03:48:40.856Z,1.80
2022-09-23T03:51:24.147Z,1.80
2022-09-23T03:53:54.200Z,1.90
2022-09-23T03:56:23.999Z,1.90
2022-09-23T03:58:53.851Z,2.00
2022-09-23T04:01:23.766Z,2.00
2022-09-23T04:03:55.490Z,2.10
2022-09-23T04:06:28.025Z,2.10
2022-09-23T04:08:58.501Z,2.10
2022-09-23T04:11:28.341Z,2.10
2022-09-23T04:13:58.959Z,2.10
2022-09-23T04:16:29.188Z,2.10
2022-09-23T04:18:59.130Z,2.10
2022-09-23T04:21:31.723Z,2.00
2022-09-23T04:24:01.593Z,2.00
2022-09-23T04:26:31.433Z,2.10
2022-09-23T04:29:01.560Z,2.10
2022-09-23T04:31:31.702Z,2.10
2022-09-23T04:34:01.893Z,2.10
2022-09-23T04:36:34.359Z,2.00
2022-09-23T04:39:04.444Z,2.00
2022-09-23T04:41:34.400Z,2.00
2022-09-23T04:44:04.971Z,2.00
2022-09-23T04:46:34.897Z,2.00
2022-09-23T04:49:04.733Z,2.10
2022-09-23T04:51:37.237Z,2.00
2022-09-23T04:54:07.499Z,2.00
2022-09-23T04:56:37.406Z,2.00
2022-09-23T04:59:07.685Z,2.00
2022-09-23T05:01:38.571Z,2.00
2022-09-23T05:04:11.148Z,2.00
2022-09-23T05:06:45.284Z,2.00
2022-09-23T05:09:19.088Z,2.10
2022-09-23T05:11:48.944Z,2.10
2022-09-23T05:14:18.842Z,2.10
2022-09-23T05:16:48.707Z,2.20
2022-09-23T05:19:18.528Z,2.20
2022-09-23T05:21:50.981Z,2.30
2022-09-23T05:24:24.651Z,2.30
2022-09-23T05:26:55.984Z,2.40
2022-09-23T05:29:25.835Z,2.40
2022-09-23T05:31:55.722Z,2.50
2022-09-23T05:34:25.624Z,2.60
2022-09-23T05:36:58.442Z,2.70
2022-09-23T05:39:28.304Z,2.80
2022-09-23T05:42:00.299Z,2.90
2022-09-23T05:44:30.142Z,3.00
2022-09-23T05:47:00.069Z,3.20
2022-09-23T05:49:55.271Z,3.30
2022-09-23T05:52:22.727Z,3.40
2022-09-23T05:54:52.770Z,3.50
2022-09-23T05:57:22.592Z,3.70
2022-09-23T05:59:52.439Z,3.80
2022-09-23T06:02:22.308Z,3.90
2022-09-23T06:04:52.150Z,4.10
2022-09-23T06:07:24.999Z,4.20
2022-09-23T06:09:55.927Z,4.40
2022-09-23T06:12:25.773Z,4.50
2022-09-23T06:14:55.623Z,4.70
2022-09-23T06:17:25.439Z,4.80
2022-09-23T06:19:55.303Z,5.00
2022-09-23T06:22:29.948Z,5.20
2022-09-23T06:24:59.806Z,5.40
2022-09-23T06:27:29.627Z,5.60
2022-09-23T06:29:59.939Z,5.80
2022-09-23T06:32:29.755Z,6.00
2022-09-23T06:34:59.697Z,6.10
2022-09-23T06:37:32.166Z,6.20
2022-09-23T06:40:02.047Z,6.40
2022-09-23T06:42:31.858Z,6.50
2022-09-23T06:45:02.243Z,6.60
2022-09-23T06:47:32.061Z,6.70
2022-09-23T06:50:01.873Z,6.90
2022-09-23T06:52:34.549Z,7.00
2022-09-23T06:55:04.409Z,7.10
2022-09-23T06:57:34.723Z,7.30
2022-09-23T07:00:04.958Z,7.40
2022-09-23T07:02:34.918Z,7.60
2022-09-23T07:05:05.307Z,7.60
2022-09-23T07:07:38.430Z,7.70
2022-09-23T07:10:09.761Z,7.80
2022-09-23T07:12:39.829Z,8.00
2022-09-23T07:15:11.310Z,8.00
2022-09-23T07:17:43.223Z,8.20
2022-09-23T07:20:14.178Z,8.30
2022-09-23T07:22:46.657Z,8.30
2022-09-23T07:25:16.500Z,8.50
2022-09-23T07:27:48.291Z,8.70
2022-09-23T07:30:24.496Z,9.00
2022-09-23T07:32:55.818Z,9.30
2022-09-23T07:35:28.238Z,9.40
2022-09-23T07:38:00.686Z,9.60
2022-09-23T07:40:30.585Z,9.90
2022-09-23T07:43:00.937Z,10.10
2022-09-23T07:45:32.010Z,10.30
2022-09-23T07:48:01.842Z,10.50
2022-09-23T07:50:32.411Z,10.60
2022-09-23T07:53:06.010Z,10.80
2022-09-23T07:55:35.848Z,11.00
2022-09-23T07:58:06.128Z,11.20
2022-09-23T08:00:36.341Z,11.30
2022-09-23T08:03:06.280Z,11.50
2022-09-23T08:05:36.629Z,11.70
2022-09-23T08:08:09.839Z,11.90
2022-09-23T08:10:39.737Z,12.00
2022-09-23T08:13:09.949Z,12.20
2022-09-23T08:15:40.563Z,12.30
2022-09-23T08:18:10.415Z,12.40
2022-09-23T08:20:49.146Z,12.50
2022-09-23T08:23:21.731Z,12.60
2022-09-23T08:25:51.696Z,12.90
2022-09-23T08:28:22.130Z,12.80
2022-09-23T08:30:52.355Z,12.90
2022-09-23T08:33:23.642Z,12.90
2022-09-23T08:35:54.150Z,12.70
2022-09-23T08:38:27.227Z,12.90
2022-09-23T08:41:07.605Z,13.00
2022-09-23T08:43:39.752Z,13.20
2022-09-23T08:46:13.668Z,13.30
2022-09-23T08:48:46.467Z,13.30
2022-09-23T08:51:23.069Z,13.60
2022-09-23T08:53:55.555Z,13.90
2022-09-23T08:56:26.407Z,14.00
2022-09-23T08:59:05.338Z,14.20
2022-09-23T09:01:41.144Z,14.30
2022-09-23T09:04:18.739Z,14.30
2022-09-23T09:06:53.961Z,14.40
2022-09-23T09:09:30.141Z,14.50
2022-09-23T09:12:04.116Z,14.50
2022-09-23T09:14:40.850Z,14.50
2022-09-23T09:17:35.089Z,14.50
2022-09-23T09:20:11.811Z,14.70
2022-09-23T09:22:50.939Z,14.70
2022-09-23T09:25:34.126Z,15.00
2022-09-23T09:28:04.707Z,15.20
2022-09-23T09:30:36.357Z,15.20
2022-09-23T09:33:07.821Z,15.50
2022-09-23T09:35:40.561Z,15.80
2022-09-23T09:38:10.465Z,16.00
2022-09-23T09:40:50.009Z,16.10
2022-09-23T09:43:23.658Z,15.80
2022-09-23T09:46:03.163Z,15.50
2022-09-23T09:48:37.959Z,15.30
2022-09-23T09:51:21.634Z,15.20
2022-09-23T09:53:52.730Z,14.80
2022-09-23T09:56:28.785Z,14.60
2022-09-23T09:59:01.876Z,14.40
2022-09-23T10:01:33.731Z,14.20
2022-09-23T10:04:04.853Z,14.20
2022-09-23T10:06:37.561Z,14.20
2022-09-23T10:09:19.804Z,14.20
2022-09-23T10:12:18.704Z,14.30
2022-09-23T10:14:50.728Z,14.20
2022-09-23T10:17:24.273Z,14.10
2022-09-23T10:20:01.007Z,14.00
2022-09-23T10:22:34.683Z,14.00
2022-09-23T10:25:10.026Z,14.00
2022-09-23T10:27:42.497Z,13.90
2022-09-23T10:30:24.512Z,13.70
2022-09-23T10:32:56.016Z,14.10
2022-09-23T10:35:28.370Z,14.00
2022-09-23T10:37:59.379Z,14.00
2022-09-23T10:40:46.350Z,14.30
2022-09-23T10:43:41.118Z,14.40
2022-09-23T10:46:26.158Z,14.50
2022-09-23T10:49:09.095Z,14.60
2022-09-23T10:51:45.999Z,14.60
2022-09-23T10:54:22.717Z,14.70
2022-09-23T10:57:01.684Z,14.80
2022-09-23T10:59:43.631Z,15.30
2022-09-23T11:02:28.419Z,15.40
2022-09-23T11:05:18.263Z,15.30
2022-09-23T11:07:53.937Z,15.30
2022-09-23T11:10:53.085Z,15.30
2022-09-23T11:13:34.643Z,15.60
2022-09-23T11:16:13.292Z,15.50
2022-09-23T11:19:05.287Z,15.10
2022-09-23T11:21:44.985Z,14.90
2022-09-23T11:24:50.390Z,14.80
2022-09-23T11:27:29.540Z,15.00
2022-09-23T11:30:03.656Z,15.00
2022-09-23T11:32:51.170Z,14.80
2022-09-23T11:35:23.535Z,14.80
2022-09-23T11:37:55.496Z,14.70
2022-09-23T11:40:30.360Z,14.80
2022-09-23T11:43:04.304Z,15.00
2022-09-23T11:45:36.058Z,15.00
2022-09-23T11:48:12.585Z,15.10
2022-09-23T11:50:48.625Z,15.10
2022-09-23T11:53:23.237Z,15.40
2022-09-23T11:55:58.205Z,15.50
2022-09-23T11:58:32.647Z,15.80
2022-09-23T12:01:07.244Z,16.30
2022-09-23T12:03:47.358Z,16.90
2022-09-23T12:06:20.348Z,16.90
2022-09-23T12:08:53.149Z,17.20
2022-09-23T12:11:29.943Z,16.90
2022-09-23T12:14:08.374Z,16.30
2022-09-23T12:16:58.204Z,16.60
2022-09-23T12:19:47.161Z,17.10
2022-09-23T12:22:27.232Z,17.40
2022-09-23T12:25:01.054Z,17.10
2022-09-23T12:27:36.993Z,17.10
2022-09-23T12:30:08.639Z,16.70
2022-09-23T12:32:38.571Z,16.60
2022-09-23T12:35:24.433Z,16.70
2022-09-23T12:37:54.869Z,16.30
2022-09-23T12:40:28.571Z,15.90
2022-09-23T12:42:59.361Z,16.00
2022-09-23T12:45:40.219Z,16.00
2022-09-23T12:48:45.320Z,16.30
2022-09-23T12:51:23.256Z,16.50
2022-09-23T12:54:26.750Z,16.50
2022-09-23T12:57:04.020Z,16.60
2022-09-23T12:59:50.077Z,17.20
2022-09-23T13:02:27.889Z,17.00
2022-09-23T13:05:14.532Z,17.30
2022-09-23T13:07:49.194Z,17.50
2022-09-23T13:10:21.923Z,17.30
2022-09-23T13:12:52.707Z,17.30
2022-09-23T13:15:30.482Z,17.60
2022-09-23T13:18:28.231Z,17.60
2022-09-23T13:20:58.484Z,17.90
2022-09-23T13:23:31.989Z,17.70
2022-09-23T13:26:03.716Z,17.40
2022-09-23T13:28:37.819Z,17.40
2022-09-23T13:31:09.534Z,17.20
2022-09-23T13:33:45.948Z,17.10
2022-09-23T13:36:17.319Z,17.00
2022-09-23T13:38:50.202Z,17.30
2022-09-23T13:41:22.523Z,17.90
2022-09-23T13:43:53.664Z,18.10
2022-09-23T13:46:25.019Z,18.30
2022-09-23T13:48:57.058Z,18.10
2022-09-23T13:51:30.560Z,17.90
2022-09-23T13:54:05.479Z,18.20
2022-09-23T13:56:37.926Z,18.20
2022-09-23T13:59:21.721Z,18.40
2022-09-23T14:01:51.781Z,18.60
2022-09-23T14:04:29.038Z,18.50
2022-09-23T14:06:59.063Z,18.60
2022-09-23T14:09:32.548Z,18.80
2022-09-23T14:12:03.407Z,18.80
2022-09-23T14:14:33.823Z,18.60
2022-09-23T14:17:03.675Z,18.50
2022-09-23T14:19:34.780Z,18.60
2022-09-23T14:22:06.338Z,18.70
2022-09-23T14:24:41.826Z,18.40
2022-09-23T14:27:16.781Z,18.50
2022-09-23T14:29:48.169Z,18.40
2022-09-23T14:32:21.295Z,18.40
2022-09-23T14:34:54.995Z,18.00
2022-09-23T14:37:43.404Z,17.70
2022-09-23T14:40:19.115Z,17.60
2022-09-23T14:42:51.531Z,17.40
2022-09-23T14:45:23.747Z,17.50
2022-09-23T14:47:55.644Z,17.40
2022-09-23T14:50:47.622Z,17.50
2022-09-23T14:53:45.804Z,17.20
2022-09-23T14:56:25.559Z,17.00
2022-09-23T14:58:57.382Z,16.90
2022-09-23T15:01:36.625Z,16.60
2022-09-23T15:04:35.523Z,16.40
2022-09-23T15:07:09.178Z,16.30
2022-09-23T15:09:41.179Z,16.10
2022-09-23T15:12:17.054Z,15.80
2022-09-23T15:14:49.215Z,15.60
2022-09-23T15:17:32.714Z,15.60
2022-09-23T15:20:06.550Z,15.50
2022-09-23T15:22:45.893Z,15.50
2022-09-23T15:25:21.636Z,15.40
2022-09-23T15:28:05.973Z,15.40
2022-09-23T15:30:38.328Z,15.20
2022-09-23T15:33:09.633Z,15.20
2022-09-23T15:35:39.608Z,15.10
2022-09-23T15:38:09.465Z,15.00
2022-09-23T15:40:40.527Z,15.00
2022-09-23T15:43:20.903Z,14.90
2022-09-23T15:45:53.439Z,14.70
2022-09-23T15:48:26.263Z,14.70
2022-09-23T15:50:57.777Z,14.70
2022-09-23T15:53:30.046Z,14.60
2022-09-23T15:56:00.225Z,14.40
2022-09-23T15:58:32.983Z,14.30
2022-09-23T16:01:03.742Z,14.30
2022-09-23T16:03:33.739Z,14.10
2022-09-23T16:06:06.326Z,13.90
2022-09-23T16:08:36.150Z,13.80
2022-09-23T16:11:06.273Z,13.80
2022-09-23T16:13:38.725Z,13.50
2022-09-23T16:16:08.913Z,13.30
2022-09-23T16:18:42.190Z,13.10
2022-09-23T16:21:13.298Z,13.10
2022-09-23T16:23:47.416Z,13.00
2022-09-23T16:26:20.658Z,12.90
2022-09-23T16:28:55.227Z,12.80
2022-09-23T16:31:26.887Z,12.80
2022-09-23T16:33:56.971Z,12.70
2022-09-23T16:36:29.012Z,12.70
2022-09-23T16:38:59.408Z,12.50
2022-09-23T16:41:31.670Z,12.40
2022-09-23T16:44:06.354Z,12.40
2022-09-23T16:46:36.781Z,12.30
2022-09-23T16:49:07.019Z,12.30
2022-09-23T16:51:38.956Z,12.00
2022-09-23T16:54:12.094Z,11.90
2022-09-23T16:56:44.504Z,11.70
2022-09-23T16:59:18.249Z,11.50
2022-09-23T17:02:00.909Z,11.40
2022-09-23T17:04:31.732Z,11.30
2022-09-23T17:07:02.102Z,11.30
2022-09-23T17:09:32.351Z,11.20
2022-09-23T17:12:07.925Z,11.10
2022-09-23T17:14:40.728Z,11.00
2022-09-23T17:17:10.923Z,10.90
2022-09-23T17:19:41.578Z,10.80
2022-09-23T17:22:12.210Z,10.70
2022-09-23T17:24:42.952Z,10.70
2022-09-23T17:27:17.331Z,10.60
2022-09-23T17:29:50.195Z,10.60
2022-09-23T17:32:21.157Z,10.50
2022-09-23T17:34:51.401Z,10.40
2022-09-23T17:37:21.977Z,10.30
2022-09-23T17:39:52.235Z,10.20
2022-09-23T17:42:22.800Z,10.10
2022-09-23T17:44:56.420Z,9.90
2022-09-23T17:47:27.188Z,9.70
2022-09-23T17:49:59.018Z,9.60
2022-09-23T17:52:29.261Z,9.50
2022-09-23T17:54:59.452Z,9.40
2022-09-23T17:57:29.657Z,9.30
2022-09-23T18:00:02.499Z,9.20
2022-09-23T18:02:42.010Z,9.20
2022-09-23T18:05:13.142Z,9.10
2022-09-23T18:07:43.414Z,9.00
2022-09-23T18:10:14.873Z,8.90
2022-09-23T18:12:45.149Z,8.90
2022-09-23T18:15:20.173Z,8.80
2022-09-23T18:17:50.605Z,8.70
2022-09-23T18:20:20.855Z,8.60
2022-09-23T18:22:51.107Z,8.60
2022-09-23T18:25:38.120Z,8.50
2022-09-23T18:28:09.317Z,8.40
2022-09-23T18:30:42.550Z,8.30
2022-09-23T18:33:15.461Z,8.20
2022-09-23T18:35:45.758Z,8.20
2022-09-23T18:38:16.103Z,8.10
2022-09-23T18:40:57.100Z,8.00
2022-09-23T18:43:33.790Z,8.00
2022-09-23T18:46:10.915Z,7.90
2022-09-23T18:48:53.597Z,7.90
2022-09-23T18:51:26.141Z,7.80
2022-09-23T18:53:57.983Z,7.70
2022-09-23T18:56:29.762Z,7.60
2022-09-23T18:59:00.018Z,7.60
2022-09-23T19:01:33.035Z,7.40
2022-09-23T19:04:06.888Z,7.40
2022-09-23T19:06:37.762Z,7.30
2022-09-23T19:09:08.812Z,7.30
2022-09-23T19:11:39.335Z,7.20
2022-09-23T19:14:11.951Z,7.30
2022-09-23T19:16:44.931Z,7.20
2022-09-23T19:19:15.522Z,7.20
2022-09-23T19:21:45.784Z,7.10
2022-09-23T19:24:20.205Z,7.10
2022-09-23T19:26:50.666Z,7.10
2022-09-23T19:29:25.978Z,7.10
2022-09-23T19:31:59.750Z,7.00
2022-09-23T19:34:31.022Z,7.10
2022-09-23T19:37:01.645Z,7.00
2022-09-23T19:39:32.240Z,7.10
2022-09-23T19:42:02.507Z,7.10
2022-09-23T19:44:32.747Z,7.00
2022-09-23T19:47:06.113Z,7.10
2022-09-23T19:49:36.556Z,7.10
2022-09-23T19:52:06.822Z,7.00
2022-09-23T19:54:37.405Z,7.10
2022-09-23T19:57:07.643Z,7.00
2022-09-23T19:59:38.732Z,7.00
2022-09-23T20:02:12.385Z,7.00
2022-09-23T20:04:42.583Z,7.00
2022-09-23T20:07:12.794Z,6.80
2022-09-23T20:09:42.911Z,6.60
2022-09-23T20:12:13.096Z,6.40
2022-09-23T20:14:43.801Z,6.30
2022-09-23T20:17:17.549Z,6.20
2022-09-23T20:19:47.580Z,6.10
2022-09-23T20:22:33.246Z,6.10
2022-09-23T20:25:04.037Z,5.90
2022-09-23T20:27:31.809Z,5.80
2022-09-23T20:30:02.832Z,5.80
2022-09-23T20:32:36.843Z,5.70
2022-09-23T20:35:08.146Z,5.60
2022-09-23T20:37:38.144Z,5.60
2022-09-23T20:40:10.361Z,5.60
2022-09-23T20:42:40.233Z,5.60
2022-09-23T20:45:11.416Z,5.50
2022-09-23T20:47:44.195Z,5.40
2022-09-23T20:50:14.149Z,5.40
2022-09-23T20:52:43.967Z,5.40
2022-09-23T20:55:13.820Z,5.50
2022-09-23T20:57:45.309Z,5.60
2022-09-23T21:00:18.388Z,5.60
2022-09-23T21:02:54.987Z,5.60
2022-09-23T21:05:24.858Z,5.50
2022-09-23T21:07:54.703Z,5.60
2022-09-23T21:10:24.537Z,5.60
2022-09-23T21:12:54.500Z,5.60
2022-09-23T21:15:26.110Z,5.60
2022-09-23T21:17:58.549Z,5.60
2022-09-23T21:20:28.391Z,5.60
2022-09-23T21:22:58.643Z,5.50
2022-09-23T21:25:29.519Z,5.50
2022-09-23T21:28:02.173Z,5.50
2022-09-23T21:30:32.234Z,5.40
2022-09-23T21:33:06.206Z,5.30
2022-09-23T21:35:36.061Z,5.30
2022-09-23T21:38:07.189Z,5.20
2022-09-23T21:40:49.477Z,5.20
2022-09-23T21:43:20.136Z,5.20
2022-09-23T21:45:51.109Z,5.20
2022-09-23T21:48:24.419Z,5.20
2022-09-23T21:50:58.058Z,5.20
2022-09-23T21:53:28.780Z,5.20
2022-09-23T21:56:04.264Z,5.20
2022-09-23T21:58:34.620Z,5.10
2022-09-23T22:01:05.238Z,5.10
2022-09-23T22:03:37.934Z,5.10
2022-09-23T22:06:09.808Z,5.00
2022-09-23T22:08:42.415Z,4.90
2022-09-23T22:11:35.133Z,4.80
2022-09-23T22:14:07.538Z,4.80
2022-09-23T22:16:37.668Z,4.80
2022-09-23T22:19:10.934Z,4.80
2022-09-23T22:21:41.847Z,4.90
2022-09-23T22:24:12.866Z,4.90
2022-09-23T22:26:44.085Z,5.00
2022-09-23T22:29:27.862Z,5.10
2022-09-23T22:32:10.319Z,5.20
2022-09-23T22:34:51.578Z,5.20
2022-09-23T22:37:23.902Z,5.20
2022-09-23T22:39:53.779Z,5.20
2022-09-23T22:42:24.207Z,5.10
2022-09-23T22:44:55.631Z,5.10
2022-09-23T22:47:25.737Z,5.10
2022-09-23T22:49:58.203Z,5.10
2022-09-23T22:52:28.080Z,5.00
2022-09-23T22:54:57.900Z,5.00
2022-09-23T22:57:28.112Z,5.00
2022-09-23T22:59:57.931Z,4.90
2022-09-23T23:02:27.839Z,4.90
2022-09-23T23:05:00.551Z,4.80
2022-09-23T23:07:30.405Z,4.70
2022-09-23T23:10:00.269Z,4.60
2022-09-23T23:12:30.180Z,4.50
2022-09-23T23:14:59.997Z,4.50
2022-09-23T23:17:29.975Z,4.50
2022-09-23T23:20:02.474Z,4.50
2022-09-23T23:22:32.308Z,4.40
2022-09-23T23:25:02.286Z,4.40
2022-09-23T23:27:32.125Z,4.40
2022-09-23T23:30:02.006Z,4.40
2022-09-23T23:32:32.537Z,4.50
2022-09-23T23:35:04.970Z,4.40
2022-09-23T23:37:34.805Z,4.50
2022-09-23T23:40:05.194Z,4.40
2022-09-23T23:42:35.224Z,4.40
2022-09-23T23:45:05.054Z,4.40
2022-09-23T23:47:36.044Z,4.40
2022-09-23T23:50:09.899Z,4.30
2022-09-23T23:52:39.867Z,4.30
2022-09-23T23:55:10.348Z,4.20
2022-09-23T23:57:40.224Z,4.20
